AFL1226 UUEE-UWGG
Flight info
| Callsign | AFL1226 |
|---|---|
| Flight time | 1h 0m |
| Altitude | 33000 |
| Route | KOGOM3J KOGOM L94 USTOK USTOK2Z |
| Aircraft | A20N/M-SDE2E3FGHIJ1RWXY/LB1 |
Departure
| Time | 2026-04-25 11:22 |
|---|---|
| Airport | Sheremetyevo International Airport (UUEE) |
Arrival
| Time | 2026-04-25 12:23 |
|---|---|
| Airport | Nizhny Novgorod / Strigino International Airport (UWGG) |
| Time | Latitude | Longitude | Altitude | Speed | Heading |
|---|---|---|---|---|---|
| 2026-04-25 10:45 | 55.97953 | 37.41842 | 637 ft | 0 kts | 255° |
| 2026-04-25 11:09 | 55.97954 | 37.41850 | 637 ft | 2 kts | 255° |
| 2026-04-25 11:09 | 55.97958 | 37.41876 | 637 ft | 2 kts | 254° |
| 2026-04-25 11:09 | 55.97962 | 37.41902 | 637 ft | 2 kts | 255° |
| 2026-04-25 11:09 | 55.97966 | 37.41928 | 637 ft | 2 kts | 254° |
| 2026-04-25 11:10 | 55.97970 | 37.41954 | 637 ft | 2 kts | 255° |
| 2026-04-25 11:10 | 55.97971 | 37.41962 | 637 ft | 2 kts | 255° |
| 2026-04-25 11:10 | 55.97988 | 37.41993 | 637 ft | 2 kts | 187° |
| 2026-04-25 11:10 | 55.98002 | 37.41989 | 637 ft | 2 kts | 158° |
| 2026-04-25 11:11 | 55.98016 | 37.41981 | 637 ft | 2 kts | 167° |
| 2026-04-25 11:11 | 55.98026 | 37.41977 | 637 ft | 2 kts | 164° |
| 2026-04-25 11:11 | 55.98040 | 37.41970 | 637 ft | 2 kts | 166° |
| 2026-04-25 11:11 | 55.98055 | 37.41964 | 637 ft | 2 kts | 165° |
| 2026-04-25 11:12 | 55.98070 | 37.41957 | 637 ft | 2 kts | 165° |
| 2026-04-25 11:12 | 55.98080 | 37.41953 | 637 ft | 0 kts | 165° |
| 2026-04-25 11:12 | 55.98079 | 37.41953 | 637 ft | 0 kts | 165° |
| 2026-04-25 11:16 | 55.98078 | 37.41953 | 637 ft | 0 kts | 165° |
| 2026-04-25 11:16 | 55.98064 | 37.41959 | 637 ft | 3 kts | 166° |
| 2026-04-25 11:16 | 55.98033 | 37.41974 | 637 ft | 5 kts | 165° |
| 2026-04-25 11:17 | 55.97987 | 37.41996 | 637 ft | 7 kts | 165° |
| 2026-04-25 11:17 | 55.97930 | 37.42023 | 637 ft | 9 kts | 165° |
| 2026-04-25 11:17 | 55.97861 | 37.42056 | 637 ft | 11 kts | 165° |
| 2026-04-25 11:17 | 55.97787 | 37.42090 | 637 ft | 9 kts | 165° |
| 2026-04-25 11:18 | 55.97719 | 37.42124 | 637 ft | 10 kts | 157° |
| 2026-04-25 11:18 | 55.97694 | 37.42240 | 637 ft | 12 kts | 78° |
| 2026-04-25 11:18 | 55.97712 | 37.42368 | 637 ft | 8 kts | 74° |
| 2026-04-25 11:18 | 55.97728 | 37.42477 | 637 ft | 9 kts | 74° |
| 2026-04-25 11:19 | 55.97747 | 37.42604 | 637 ft | 12 kts | 74° |
| 2026-04-25 11:19 | 55.97771 | 37.42766 | 637 ft | 15 kts | 74° |
| 2026-04-25 11:19 | 55.97801 | 37.42965 | 637 ft | 18 kts | 75° |
| 2026-04-25 11:19 | 55.97836 | 37.43195 | 637 ft | 20 kts | 75° |
| 2026-04-25 11:20 | 55.97875 | 37.43457 | 637 ft | 22 kts | 75° |
| 2026-04-25 11:20 | 55.97916 | 37.43734 | 637 ft | 23 kts | 75° |
| 2026-04-25 11:20 | 55.97945 | 37.43965 | 637 ft | 13 kts | 96° |
| 2026-04-25 11:20 | 55.97873 | 37.44054 | 637 ft | 14 kts | 165° |
| 2026-04-25 11:21 | 55.97783 | 37.44018 | 637 ft | 14 kts | 237° |
| 2026-04-25 11:21 | 55.97754 | 37.43845 | 637 ft | 14 kts | 254° |
| 2026-04-25 11:21 | 55.97707 | 37.43529 | 637 ft | 61 kts | 255° |
| 2026-04-25 11:21 | 55.97523 | 37.42304 | 639 ft | 140 kts | 258° |
| 2026-04-25 11:22 | 55.97259 | 37.40478 | 1204 ft | 160 kts | 254° |
| 2026-04-25 11:22 | 55.97060 | 37.39249 | 1901 ft | 155 kts | 254° |
| 2026-04-25 11:22 | 55.96674 | 37.36854 | 2908 ft | 161 kts | 256° |
| 2026-04-25 11:22 | 55.96359 | 37.34830 | 3445 ft | 182 kts | 256° |
| 2026-04-25 11:23 | 55.96003 | 37.32566 | 4094 ft | 200 kts | 255° |
| 2026-04-25 11:23 | 55.95612 | 37.30078 | 4772 ft | 218 kts | 255° |
| 2026-04-25 11:23 | 55.95188 | 37.27385 | 5458 ft | 237 kts | 255° |
| 2026-04-25 11:23 | 55.94728 | 37.24456 | 6145 ft | 255 kts | 255° |
| 2026-04-25 11:24 | 55.94324 | 37.21354 | 6763 ft | 266 kts | 267° |
| 2026-04-25 11:24 | 55.94768 | 37.18177 | 7700 ft | 271 kts | 303° |
| 2026-04-25 11:24 | 55.96125 | 37.15967 | 8895 ft | 270 kts | 329° |
| 2026-04-25 11:24 | 55.97906 | 37.15033 | 9961 ft | 276 kts | 353° |
| 2026-04-25 11:25 | 55.99827 | 37.15585 | 10825 ft | 292 kts | 18° |
| 2026-04-25 11:25 | 56.01513 | 37.17806 | 11366 ft | 320 kts | 48° |
| 2026-04-25 11:25 | 56.02434 | 37.21491 | 12119 ft | 339 kts | 77° |
| 2026-04-25 11:25 | 56.02283 | 37.25697 | 12992 ft | 349 kts | 105° |
| 2026-04-25 11:26 | 56.01263 | 37.29683 | 13638 ft | 355 kts | 119° |
| 2026-04-25 11:26 | 55.99972 | 37.33448 | 13957 ft | 357 kts | 121° |
| 2026-04-25 11:26 | 55.98676 | 37.37225 | 13991 ft | 357 kts | 120° |
| 2026-04-25 11:26 | 55.97458 | 37.41003 | 13991 ft | 356 kts | 118° |
| 2026-04-25 11:27 | 55.96265 | 37.44889 | 13990 ft | 356 kts | 117° |
| 2026-04-25 11:27 | 55.95105 | 37.48786 | 13991 ft | 356 kts | 115° |
| 2026-04-25 11:27 | 55.94149 | 37.52875 | 14141 ft | 361 kts | 106° |
| 2026-04-25 11:27 | 55.93691 | 37.55728 | 14584 ft | 365 kts | 101° |
| 2026-04-25 11:28 | 55.93009 | 37.61639 | 15816 ft | 366 kts | 98° |
| 2026-04-25 11:28 | 55.92544 | 37.66047 | 16607 ft | 370 kts | 99° |
| 2026-04-25 11:28 | 55.92038 | 37.70589 | 17339 ft | 376 kts | 102° |
| 2026-04-25 11:28 | 55.91260 | 37.75027 | 18070 ft | 381 kts | 111° |
| 2026-04-25 11:29 | 55.90139 | 37.79290 | 18792 ft | 386 kts | 118° |
| 2026-04-25 11:29 | 55.88851 | 37.83450 | 19489 ft | 390 kts | 120° |
| 2026-04-25 11:29 | 55.87509 | 37.87654 | 20162 ft | 394 kts | 120° |
| 2026-04-25 11:29 | 55.86145 | 37.91926 | 20823 ft | 399 kts | 120° |
| 2026-04-25 11:30 | 55.84786 | 37.96218 | 21466 ft | 403 kts | 120° |
| 2026-04-25 11:30 | 55.83414 | 38.00570 | 22102 ft | 407 kts | 119° |
| 2026-04-25 11:30 | 55.82035 | 38.04953 | 22705 ft | 411 kts | 119° |
| 2026-04-25 11:30 | 55.80692 | 38.09460 | 23276 ft | 416 kts | 113° |
| 2026-04-25 11:31 | 55.79836 | 38.14406 | 23837 ft | 419 kts | 98° |
| 2026-04-25 11:31 | 55.79611 | 38.19553 | 24173 ft | 427 kts | 86° |
| 2026-04-25 11:31 | 55.79738 | 38.24894 | 24426 ft | 438 kts | 84° |
| 2026-04-25 11:31 | 55.79921 | 38.30288 | 24667 ft | 445 kts | 84° |
| 2026-04-25 11:32 | 55.80114 | 38.35791 | 24678 ft | 444 kts | 82° |
| 2026-04-25 11:32 | 55.80512 | 38.41164 | 24681 ft | 442 kts | 76° |
| 2026-04-25 11:32 | 55.81195 | 38.46500 | 24682 ft | 439 kts | 70° |
| 2026-04-25 11:32 | 55.82081 | 38.51644 | 24684 ft | 438 kts | 68° |
| 2026-04-25 11:33 | 55.83026 | 38.56803 | 24682 ft | 438 kts | 68° |
| 2026-04-25 11:33 | 55.83961 | 38.61897 | 24681 ft | 438 kts | 68° |
| 2026-04-25 11:33 | 55.84902 | 38.67043 | 24681 ft | 437 kts | 68° |
| 2026-04-25 11:33 | 55.85941 | 38.72059 | 24680 ft | 435 kts | 64° |
| 2026-04-25 11:34 | 55.87156 | 38.77027 | 24682 ft | 434 kts | 61° |
| 2026-04-25 11:34 | 55.88432 | 38.81854 | 24680 ft | 434 kts | 60° |
| 2026-04-25 11:34 | 55.89731 | 38.86695 | 24680 ft | 433 kts | 60° |
| 2026-04-25 11:34 | 55.91030 | 38.91552 | 24679 ft | 432 kts | 60° |
| 2026-04-25 11:35 | 55.92310 | 38.96366 | 24680 ft | 432 kts | 60° |
| 2026-04-25 11:35 | 55.93577 | 39.01150 | 24679 ft | 432 kts | 60° |
| 2026-04-25 11:35 | 55.94855 | 39.06035 | 24717 ft | 432 kts | 62° |
| 2026-04-25 11:35 | 55.95879 | 39.11029 | 25323 ft | 435 kts | 69° |
| 2026-04-25 11:36 | 55.96583 | 39.16293 | 26060 ft | 437 kts | 76° |
| 2026-04-25 11:36 | 55.96973 | 39.21681 | 26801 ft | 436 kts | 81° |
| 2026-04-25 11:36 | 55.97252 | 39.27033 | 27538 ft | 434 kts | 81° |
| 2026-04-25 11:36 | 55.97508 | 39.32324 | 28272 ft | 430 kts | 81° |
| 2026-04-25 11:37 | 55.97769 | 39.37655 | 29024 ft | 427 kts | 81° |
| 2026-04-25 11:37 | 55.98036 | 39.42900 | 29774 ft | 423 kts | 81° |
| 2026-04-25 11:37 | 55.98301 | 39.48060 | 30520 ft | 418 kts | 81° |
| 2026-04-25 11:37 | 55.98564 | 39.53131 | 31221 ft | 413 kts | 80° |
| 2026-04-25 11:38 | 55.98927 | 39.58129 | 31899 ft | 405 kts | 76° |
| 2026-04-25 11:38 | 55.99478 | 39.63066 | 32398 ft | 402 kts | 72° |
| 2026-04-25 11:38 | 56.00219 | 39.67867 | 32639 ft | 405 kts | 68° |
| 2026-04-25 11:38 | 56.01171 | 39.72629 | 32691 ft | 414 kts | 64° |
| 2026-04-25 11:39 | 56.03711 | 39.82080 | 32702 ft | 435 kts | 57° |
| 2026-04-25 11:39 | 56.05147 | 39.86879 | 32700 ft | 446 kts | 57° |
| 2026-04-25 11:39 | 56.06618 | 39.91797 | 32697 ft | 457 kts | 57° |
| 2026-04-25 11:40 | 56.09616 | 40.01944 | 32682 ft | 462 kts | 58° |
| 2026-04-25 11:40 | 56.12597 | 40.12144 | 32676 ft | 463 kts | 58° |
| 2026-04-25 11:41 | 56.15561 | 40.22344 | 32672 ft | 454 kts | 58° |
| 2026-04-25 11:41 | 56.16981 | 40.27267 | 32668 ft | 439 kts | 57° |
| 2026-04-25 11:41 | 56.18342 | 40.31994 | 32667 ft | 423 kts | 57° |
| 2026-04-25 11:42 | 56.19674 | 40.36623 | 32664 ft | 408 kts | 57° |
| 2026-04-25 11:42 | 56.20950 | 40.41055 | 32663 ft | 394 kts | 57° |
| 2026-04-25 11:42 | 56.23442 | 40.49702 | 32670 ft | 391 kts | 56° |
| 2026-04-25 11:43 | 56.25570 | 40.58746 | 32475 ft | 400 kts | 70° |
| 2026-04-25 11:43 | 56.26066 | 40.63630 | 32001 ft | 406 kts | 80° |
| 2026-04-25 11:43 | 56.26125 | 40.68759 | 31465 ft | 411 kts | 90° |
| 2026-04-25 11:44 | 56.25931 | 40.73860 | 30927 ft | 414 kts | 92° |
| 2026-04-25 11:44 | 56.25686 | 40.78996 | 30363 ft | 415 kts | 92° |
| 2026-04-25 11:44 | 56.25441 | 40.84141 | 29784 ft | 416 kts | 91° |
| 2026-04-25 11:44 | 56.25206 | 40.89265 | 29217 ft | 417 kts | 91° |
| 2026-04-25 11:45 | 56.24979 | 40.94443 | 28638 ft | 415 kts | 91° |
| 2026-04-25 11:45 | 56.24754 | 40.99591 | 28063 ft | 410 kts | 90° |
| 2026-04-25 11:45 | 56.24537 | 41.04622 | 27491 ft | 405 kts | 90° |
| 2026-04-25 11:45 | 56.24321 | 41.09615 | 26921 ft | 400 kts | 90° |
| 2026-04-25 11:46 | 56.24104 | 41.14590 | 26348 ft | 395 kts | 90° |
| 2026-04-25 11:46 | 56.23891 | 41.19437 | 25780 ft | 391 kts | 90° |
| 2026-04-25 11:46 | 56.23679 | 41.24242 | 25220 ft | 386 kts | 90° |
| 2026-04-25 11:46 | 56.23467 | 41.28987 | 24668 ft | 382 kts | 89° |
| 2026-04-25 11:47 | 56.23254 | 41.33742 | 24102 ft | 378 kts | 89° |
| 2026-04-25 11:47 | 56.23046 | 41.38364 | 23570 ft | 375 kts | 89° |
| 2026-04-25 11:47 | 56.22837 | 41.42982 | 23032 ft | 371 kts | 89° |
| 2026-04-25 11:47 | 56.22628 | 41.47572 | 22482 ft | 368 kts | 89° |
| 2026-04-25 11:48 | 56.22417 | 41.52135 | 21943 ft | 365 kts | 89° |
| 2026-04-25 11:48 | 56.22206 | 41.56652 | 21399 ft | 362 kts | 89° |
| 2026-04-25 11:48 | 56.21999 | 41.61064 | 20853 ft | 359 kts | 90° |
| 2026-04-25 11:48 | 56.21790 | 41.65500 | 20306 ft | 356 kts | 91° |
| 2026-04-25 11:49 | 56.21578 | 41.69915 | 19758 ft | 353 kts | 90° |
| 2026-04-25 11:49 | 56.21367 | 41.74289 | 19203 ft | 350 kts | 91° |
| 2026-04-25 11:49 | 56.21159 | 41.78566 | 18650 ft | 347 kts | 91° |
| 2026-04-25 11:49 | 56.20949 | 41.82852 | 18094 ft | 345 kts | 91° |
| 2026-04-25 11:50 | 56.20741 | 41.87075 | 17543 ft | 342 kts | 91° |
| 2026-04-25 11:50 | 56.20531 | 41.91310 | 16987 ft | 339 kts | 91° |
| 2026-04-25 11:50 | 56.20322 | 41.95496 | 16425 ft | 336 kts | 91° |
| 2026-04-25 11:50 | 56.20112 | 41.99639 | 15872 ft | 333 kts | 91° |
| 2026-04-25 11:51 | 56.19902 | 42.03757 | 15318 ft | 330 kts | 91° |
| 2026-04-25 11:51 | 56.19696 | 42.07787 | 14763 ft | 326 kts | 91° |
| 2026-04-25 11:51 | 56.19490 | 42.11792 | 14195 ft | 319 kts | 92° |
| 2026-04-25 11:51 | 56.19286 | 42.15686 | 13644 ft | 313 kts | 92° |
| 2026-04-25 11:52 | 56.19081 | 42.19556 | 13077 ft | 307 kts | 92° |
| 2026-04-25 11:52 | 56.18880 | 42.23300 | 12516 ft | 302 kts | 92° |
| 2026-04-25 11:52 | 56.18681 | 42.26985 | 11958 ft | 297 kts | 92° |
| 2026-04-25 11:52 | 56.18485 | 42.30601 | 11400 ft | 292 kts | 92° |
| 2026-04-25 11:53 | 56.18287 | 42.34231 | 10824 ft | 288 kts | 92° |
| 2026-04-25 11:53 | 56.18092 | 42.37784 | 10256 ft | 284 kts | 92° |
| 2026-04-25 11:53 | 56.17902 | 42.41238 | 9698 ft | 281 kts | 92° |
| 2026-04-25 11:53 | 56.17709 | 42.44706 | 9127 ft | 278 kts | 92° |
| 2026-04-25 11:54 | 56.17519 | 42.48122 | 8561 ft | 275 kts | 93° |
| 2026-04-25 11:54 | 56.17330 | 42.51505 | 7987 ft | 272 kts | 93° |
| 2026-04-25 11:54 | 56.16956 | 42.58131 | 6891 ft | 265 kts | 93° |
| 2026-04-25 11:55 | 56.16771 | 42.61358 | 6665 ft | 252 kts | 93° |
| 2026-04-25 11:55 | 56.16592 | 42.64479 | 6666 ft | 254 kts | 93° |
| 2026-04-25 11:55 | 56.16411 | 42.67623 | 6667 ft | 255 kts | 94° |
| 2026-04-25 11:55 | 56.16228 | 42.70773 | 6663 ft | 256 kts | 94° |
| 2026-04-25 11:56 | 56.16046 | 42.73906 | 6651 ft | 245 kts | 94° |
| 2026-04-25 11:56 | 56.15873 | 42.76843 | 6643 ft | 230 kts | 94° |
| 2026-04-25 11:56 | 56.15710 | 42.79628 | 6646 ft | 223 kts | 94° |
| 2026-04-25 11:56 | 56.15550 | 42.82392 | 6651 ft | 223 kts | 94° |
| 2026-04-25 11:57 | 56.15390 | 42.85146 | 6654 ft | 223 kts | 94° |
| 2026-04-25 11:57 | 56.15227 | 42.87907 | 6650 ft | 223 kts | 94° |
| 2026-04-25 11:57 | 56.15062 | 42.90690 | 6652 ft | 223 kts | 94° |
| 2026-04-25 11:57 | 56.14899 | 42.93426 | 6651 ft | 223 kts | 94° |
| 2026-04-25 11:58 | 56.14733 | 42.96199 | 6646 ft | 223 kts | 94° |
| 2026-04-25 11:58 | 56.14568 | 42.98946 | 6648 ft | 224 kts | 93° |
| 2026-04-25 11:58 | 56.14400 | 43.01723 | 6649 ft | 225 kts | 93° |
| 2026-04-25 11:58 | 56.14232 | 43.04503 | 6649 ft | 225 kts | 93° |
| 2026-04-25 11:59 | 56.14063 | 43.07286 | 6652 ft | 226 kts | 93° |
| 2026-04-25 11:59 | 56.13892 | 43.10107 | 6649 ft | 226 kts | 93° |
| 2026-04-25 11:59 | 56.13723 | 43.12872 | 6647 ft | 225 kts | 93° |
| 2026-04-25 12:00 | 56.13428 | 43.18310 | 6458 ft | 213 kts | 89° |
| 2026-04-25 12:00 | 56.13435 | 43.20938 | 6311 ft | 210 kts | 83° |
| 2026-04-25 12:00 | 56.13868 | 43.26074 | 6119 ft | 207 kts | 71° |
| 2026-04-25 12:01 | 56.14256 | 43.28508 | 6150 ft | 205 kts | 68° |
| 2026-04-25 12:01 | 56.14674 | 43.30973 | 6335 ft | 206 kts | 68° |
| 2026-04-25 12:01 | 56.15086 | 43.33416 | 6514 ft | 206 kts | 68° |
| 2026-04-25 12:01 | 56.15501 | 43.35888 | 6685 ft | 207 kts | 68° |
| 2026-04-25 12:02 | 56.16319 | 43.40817 | 7010 ft | 207 kts | 68° |
| 2026-04-25 12:02 | 56.16731 | 43.43308 | 7173 ft | 209 kts | 68° |
| 2026-04-25 12:02 | 56.17139 | 43.45786 | 7347 ft | 209 kts | 68° |
| 2026-04-25 12:03 | 56.17552 | 43.48303 | 7521 ft | 210 kts | 68° |
| 2026-04-25 12:03 | 56.17961 | 43.50796 | 7709 ft | 211 kts | 68° |
| 2026-04-25 12:03 | 56.18373 | 43.53321 | 7894 ft | 212 kts | 68° |
| 2026-04-25 12:03 | 56.18785 | 43.55846 | 8080 ft | 212 kts | 68° |
| 2026-04-25 12:04 | 56.19200 | 43.58392 | 8267 ft | 213 kts | 68° |
| 2026-04-25 12:04 | 56.19616 | 43.60948 | 8458 ft | 213 kts | 68° |
| 2026-04-25 12:04 | 56.20029 | 43.63485 | 8644 ft | 214 kts | 68° |
| 2026-04-25 12:04 | 56.20448 | 43.66069 | 8616 ft | 216 kts | 69° |
| 2026-04-25 12:05 | 56.20872 | 43.68674 | 8118 ft | 219 kts | 69° |
| 2026-04-25 12:05 | 56.21299 | 43.71310 | 7594 ft | 219 kts | 69° |
| 2026-04-25 12:05 | 56.21725 | 43.73923 | 7073 ft | 218 kts | 68° |
| 2026-04-25 12:05 | 56.22233 | 43.76461 | 6553 ft | 215 kts | 63° |
| 2026-04-25 12:06 | 56.22854 | 43.78838 | 6121 ft | 208 kts | 57° |
| 2026-04-25 12:06 | 56.23555 | 43.80994 | 6017 ft | 195 kts | 52° |
| 2026-04-25 12:06 | 56.24307 | 43.83021 | 6043 ft | 194 kts | 50° |
| 2026-04-25 12:06 | 56.25055 | 43.85004 | 6028 ft | 193 kts | 50° |
| 2026-04-25 12:07 | 56.25807 | 43.86998 | 6010 ft | 192 kts | 50° |
| 2026-04-25 12:07 | 56.26557 | 43.88991 | 5999 ft | 192 kts | 50° |
| 2026-04-25 12:07 | 56.27307 | 43.90997 | 5986 ft | 189 kts | 50° |
| 2026-04-25 12:07 | 56.28032 | 43.92941 | 5991 ft | 187 kts | 51° |
| 2026-04-25 12:08 | 56.28754 | 43.94875 | 5988 ft | 187 kts | 51° |
| 2026-04-25 12:08 | 56.29483 | 43.96834 | 5867 ft | 187 kts | 50° |
| 2026-04-25 12:08 | 56.30204 | 43.98766 | 5736 ft | 186 kts | 51° |
| 2026-04-25 12:08 | 56.30878 | 44.00746 | 5630 ft | 187 kts | 60° |
| 2026-04-25 12:09 | 56.31213 | 44.03024 | 5519 ft | 190 kts | 80° |
| 2026-04-25 12:09 | 56.31118 | 44.05379 | 5415 ft | 193 kts | 101° |
| 2026-04-25 12:09 | 56.30584 | 44.07612 | 5309 ft | 195 kts | 122° |
| 2026-04-25 12:09 | 56.29677 | 44.09375 | 5203 ft | 194 kts | 143° |
| 2026-04-25 12:10 | 56.28492 | 44.10501 | 5074 ft | 192 kts | 165° |
| 2026-04-25 12:10 | 56.27200 | 44.10852 | 4950 ft | 186 kts | 185° |
| 2026-04-25 12:10 | 56.25950 | 44.10437 | 4818 ft | 178 kts | 205° |
| 2026-04-25 12:10 | 56.24898 | 44.09435 | 4696 ft | 169 kts | 222° |
| 2026-04-25 12:11 | 56.24088 | 44.07984 | 4565 ft | 163 kts | 239° |
| 2026-04-25 12:11 | 56.23550 | 44.06225 | 4435 ft | 158 kts | 254° |
| 2026-04-25 12:11 | 56.23309 | 44.04331 | 4306 ft | 155 kts | 268° |
| 2026-04-25 12:11 | 56.23357 | 44.02408 | 4173 ft | 153 kts | 282° |
| 2026-04-25 12:12 | 56.23617 | 44.00549 | 4047 ft | 153 kts | 286° |
| 2026-04-25 12:12 | 56.23751 | 43.99301 | 3960 ft | 153 kts | 279° |
| 2026-04-25 12:12 | 56.23676 | 43.96738 | 3788 ft | 156 kts | 261° |
| 2026-04-25 12:12 | 56.23294 | 43.94979 | 3646 ft | 151 kts | 246° |
| 2026-04-25 12:13 | 56.22663 | 43.93464 | 3510 ft | 153 kts | 232° |
| 2026-04-25 12:13 | 56.21836 | 43.92254 | 3416 ft | 155 kts | 222° |
| 2026-04-25 12:13 | 56.20947 | 43.91146 | 3335 ft | 155 kts | 220° |
| 2026-04-25 12:13 | 56.20049 | 43.90062 | 3256 ft | 155 kts | 220° |
| 2026-04-25 12:14 | 56.19159 | 43.88989 | 3181 ft | 155 kts | 220° |
| 2026-04-25 12:14 | 56.18253 | 43.87897 | 3103 ft | 155 kts | 220° |
| 2026-04-25 12:14 | 56.17375 | 43.86836 | 3027 ft | 154 kts | 220° |
| 2026-04-25 12:14 | 56.16483 | 43.85757 | 2947 ft | 153 kts | 220° |
| 2026-04-25 12:15 | 56.15597 | 43.84685 | 2869 ft | 153 kts | 220° |
| 2026-04-25 12:15 | 56.14708 | 43.83611 | 2792 ft | 153 kts | 220° |
| 2026-04-25 12:15 | 56.13824 | 43.82540 | 2713 ft | 154 kts | 220° |
| 2026-04-25 12:15 | 56.12940 | 43.81472 | 2637 ft | 154 kts | 220° |
| 2026-04-25 12:16 | 56.12068 | 43.80420 | 2549 ft | 149 kts | 220° |
| 2026-04-25 12:16 | 56.11201 | 43.79379 | 2470 ft | 148 kts | 220° |
| 2026-04-25 12:16 | 56.10360 | 43.78362 | 2396 ft | 147 kts | 220° |
| 2026-04-25 12:16 | 56.09508 | 43.77337 | 2322 ft | 147 kts | 220° |
| 2026-04-25 12:17 | 56.08660 | 43.76313 | 2242 ft | 147 kts | 220° |
| 2026-04-25 12:17 | 56.07815 | 43.75291 | 2168 ft | 147 kts | 220° |
| 2026-04-25 12:17 | 56.06964 | 43.74269 | 2081 ft | 146 kts | 220° |
| 2026-04-25 12:17 | 56.06149 | 43.73193 | 1996 ft | 143 kts | 234° |
| 2026-04-25 12:18 | 56.05956 | 43.71636 | 1908 ft | 130 kts | 293° |
| 2026-04-25 12:18 | 56.06654 | 43.70706 | 1904 ft | 138 kts | 351° |
| 2026-04-25 12:18 | 56.07585 | 43.71296 | 1926 ft | 148 kts | 26° |
| 2026-04-25 12:18 | 56.08456 | 43.72245 | 1914 ft | 147 kts | 24° |
| 2026-04-25 12:19 | 56.09985 | 43.73522 | 1908 ft | 144 kts | 14° |
| 2026-04-25 12:19 | 56.11268 | 43.74216 | 1909 ft | 143 kts | 9° |
| 2026-04-25 12:19 | 56.12214 | 43.74633 | 1912 ft | 142 kts | 7° |
| 2026-04-25 12:20 | 56.13180 | 43.75010 | 1918 ft | 141 kts | 6° |
| 2026-04-25 12:20 | 56.14149 | 43.75368 | 1779 ft | 141 kts | 6° |
| 2026-04-25 12:20 | 56.15058 | 43.75703 | 1568 ft | 127 kts | 5° |
| 2026-04-25 12:20 | 56.15897 | 43.76008 | 1397 ft | 122 kts | 6° |
| 2026-04-25 12:21 | 56.16735 | 43.76311 | 1246 ft | 121 kts | 5° |
| 2026-04-25 12:21 | 56.17561 | 43.76611 | 1086 ft | 121 kts | 5° |
| 2026-04-25 12:21 | 56.18384 | 43.76911 | 928 ft | 122 kts | 5° |
| 2026-04-25 12:21 | 56.19212 | 43.77214 | 749 ft | 122 kts | 5° |
| 2026-04-25 12:22 | 56.20045 | 43.77533 | 617 ft | 122 kts | 5° |
| 2026-04-25 12:22 | 56.20879 | 43.77837 | 429 ft | 121 kts | 2° |
| 2026-04-25 12:22 | 56.21701 | 43.78122 | 263 ft | 121 kts | 7° |
| 2026-04-25 12:22 | 56.22453 | 43.78361 | 246 ft | 88 kts | 11° |
| 2026-04-25 12:23 | 56.22879 | 43.78535 | 247 ft | 38 kts | 9° |
| 2026-04-25 12:23 | 56.22993 | 43.78577 | 248 ft | 6 kts | 11° |
| 2026-04-25 12:23 | 56.23045 | 43.78596 | 248 ft | 8 kts | 12° |
| 2026-04-25 12:23 | 56.23116 | 43.78624 | 247 ft | 11 kts | 12° |
| 2026-04-25 12:24 | 56.23202 | 43.78656 | 247 ft | 13 kts | 11° |
| 2026-04-25 12:24 | 56.23299 | 43.78691 | 247 ft | 14 kts | 12° |
| 2026-04-25 12:24 | 56.23408 | 43.78731 | 246 ft | 16 kts | 13° |
| 2026-04-25 12:24 | 56.23523 | 43.78775 | 246 ft | 17 kts | 16° |
| 2026-04-25 12:25 | 56.23571 | 43.78934 | 248 ft | 16 kts | 116° |
| 2026-04-25 12:25 | 56.23518 | 43.79116 | 252 ft | 16 kts | 120° |
| 2026-04-25 12:25 | 56.23425 | 43.79196 | 253 ft | 17 kts | 191° |
| 2026-04-25 12:25 | 56.23302 | 43.79152 | 253 ft | 18 kts | 191° |
| 2026-04-25 12:26 | 56.23171 | 43.79105 | 252 ft | 20 kts | 192° |
| 2026-04-25 12:26 | 56.23029 | 43.79052 | 251 ft | 21 kts | 192° |
| 2026-04-25 12:26 | 56.22881 | 43.79000 | 250 ft | 22 kts | 190° |
| 2026-04-25 12:26 | 56.22726 | 43.78941 | 250 ft | 22 kts | 191° |
| 2026-04-25 12:27 | 56.22578 | 43.78885 | 250 ft | 15 kts | 192° |
| 2026-04-25 12:27 | 56.22475 | 43.78845 | 250 ft | 15 kts | 198° |
| 2026-04-25 12:27 | 56.22368 | 43.78784 | 249 ft | 16 kts | 192° |
| 2026-04-25 12:27 | 56.22257 | 43.78743 | 250 ft | 16 kts | 191° |
| 2026-04-25 12:28 | 56.22147 | 43.78706 | 250 ft | 15 kts | 191° |
| 2026-04-25 12:28 | 56.22054 | 43.78686 | 250 ft | 10 kts | 155° |
| 2026-04-25 12:28 | 56.22024 | 43.78803 | 252 ft | 10 kts | 103° |
| 2026-04-25 12:28 | 56.22020 | 43.78839 | 253 ft | 1 kts | 103° |
| 2026-04-25 12:29 | 56.22019 | 43.78845 | 253 ft | 0 kts | 103° |